Home > Products > Valid Products > TAF

000
FTUS46 KHNX 021720
TAFBFL
TAF
KBFL 021720Z 0218/0318 VRB04KT P6SM SCT100 BKN200
     FM022000 30010KT P6SM SCT100 BKN200
      TEMPO 0223/0302 32012G19KT
     FM030600 35007KT P6SM SCT200=



000
FTUS46 KHNX 021720
TAFFAT
TAF
KFAT 021720Z 0218/0318 VRB04KT P6SM SCT070 BKN110
     FM030000 30007KT P6SM SCT100 BKN150=



000
FTUS46 KHNX 021720
TAFFAT
TAF
KFAT 021720Z 0218/0318 VRB04KT P6SM SCT070 BKN110
     FM030000 30007KT P6SM SCT100 BKN150=



000
FTUS46 KHNX 021720
TAFMCE
TAF
KMCE 021720Z 0218/0318 25007KT P6SM SCT080 BKN110
      TEMPO 0218/0220 -SHRA SCT050 BKN080
     FM022200 32009KT P6SM SCT100 BKN150=



000
FTUS46 KHNX 021720
TAFBFL
TAF
KBFL 021720Z 0218/0318 VRB04KT P6SM SCT100 BKN200
     FM022000 30010KT P6SM SCT100 BKN200
      TEMPO 0223/0302 32012G19KT
     FM030600 35007KT P6SM SCT200=



000
FTUS46 KHNX 021720
TAFMCE
TAF
KMCE 021720Z 0218/0318 25007KT P6SM SCT080 BKN110
      TEMPO 0218/0220 -SHRA SCT050 BKN080
     FM022200 32009KT P6SM SCT100 BKN150=



000
FTUS46 KHNX 021130
TAFMCE
TAF
KMCE 021130Z 0212/0312 25007KT P6SM SCT050 BKN120
     FM022200 32009KT P6SM SCT100 BKN150=



000
FTUS46 KHNX 021130
TAFBFL
TAF
KBFL 021130Z 0212/0312 VRB04KT P6SM SCT100 BKN200
     FM022000 30010KT P6SM SCT100 BKN200
      TEMPO 0223/0302 32012G19KT
     FM030600 35007KT P6SM SCT200=



000
FTUS46 KHNX 021130
TAFFAT
TAF
KFAT 021130Z 0212/0312 VRB04KT P6SM SCT050 BKN130
     FM030000 30007KT P6SM SCT100 BKN150=



000
FTUS46 KHNX 020901 AAA
TAFMCE
TAF AMD
KMCE 020901Z 0209/0306 14009KT P6SM VCTS SCT050CB BKN120
      TEMPO 0209/0212 14017G21KT 6SM -TSRA BKN030CB
     FM030000 30007KT P6SM SCT100 BKN150=



000
FTUS46 KHNX 020901 AAA
TAFMCE
TAF AMD
KMCE 020901Z 0209/0306 14009KT P6SM VCTS SCT050CB BKN120
      TEMPO 0209/0212 14017G21KT 6SM -TSRA BKN030CB
     FM030000 30007KT P6SM SCT100 BKN150=



000
FTUS46 KHNX 020859 AAA
TAFFAT
TAF AMD
KFAT 020859Z 0209/0306 VRB04KT P6SM VCTS SCT050CB BKN130
      TEMPO 0209/0212 09010G19KT 6SM -TSRA BKN030CB
     FM030000 30007KT P6SM SCT100 BKN150=



000
FTUS46 KHNX 020539
TAFMCE
TAF
KMCE 020539Z 0206/0306 31008KT P6SM VCTS SCT060 BKN100CB
      TEMPO 0206/0209 VRB10G20KT 6SM -TSRA OVC060CB
     FM020900 26003KT P6SM SCT080 BKN150
      TEMPO 0209/0212 P6SM -SHRA BKN080
     FM022100 29008KT P6SM BKN150=



000
FTUS46 KHNX 020539
TAFFAT
TAF
KFAT 020539Z 0206/0306 24005KT P6SM VCTS SCT070 BKN100CB
      TEMPO 0206/0208 VRB10G20KT 6SM -TSRA BKN070CB
     FM020900 VRB04KT P6SM SCT100 BKN200
     FM030000 30007KT P6SM SCT100 BKN150=



000
FTUS46 KHNX 020539
TAFBFL
TAF
KBFL 020539Z 0206/0306 VRB04KT P6SM SCT100 BKN200
     FM022000 30010KT P6SM SCT100 BKN200=



000
FTUS46 KHNX 020435 AAB
TAFFAT
TAF AMD
KFAT 020435Z 0205/0224 31008KT P6SM VCTS SCT070 BKN100CB
      TEMPO 0205/0206 VRB10G20KT 6SM -TSRA BKN070CB
     FM020700 VRB04KT P6SM SCT100 BKN200=



000
FTUS46 KHNX 020356 AAA
TAFFAT
TAF AMD
KFAT 020356Z 0204/0224 31008KT P6SM VCTS SCT070 BKN100CB
      TEMPO 0204/0205 VRB10G20KT 6SM -TSRA BKN070CB
     FM020600 VRB04KT P6SM SCT100 BKN200=



000
FTUS46 KHNX 020024 AAA
TAFMCE
TAF AMD
KMCE 020024Z 0200/0224 32008KT P6SM VCSH SCT060 BKN100
      TEMPO 0200/0201 VRB10G20KT 6SM -TSRA OVC060CB
     FM020600 VRB04KT P6SM SCT100 BKN200=



000
FTUS46 KHNX 020024 AAA
TAFMCE
TAF AMD
KMCE 020024Z 0200/0224 32008KT P6SM VCSH SCT060 BKN100
      TEMPO 0200/0201 VRB10G20KT 6SM -TSRA OVC060CB
     FM020600 VRB04KT P6SM SCT100 BKN200=



000
FTUS46 KHNX 012320
TAFFAT
TAF
KFAT 012320Z 0200/0224 28013KT P6SM VCSH SCT100 BKN200
     FM020600 VRB04KT P6SM SCT100 BKN200=



000
FTUS46 KHNX 012320
TAFBFL
TAF
KBFL 012320Z 0200/0224 36012KT P6SM VCSH SCT100 BKN200
     FM020600 VRB04KT P6SM SCT100 BKN200
     FM022000 30010KT P6SM SCT100 BKN200=



000
FTUS46 KHNX 012320
TAFBFL
TAF
KBFL 012320Z 0200/0224 36012KT P6SM VCSH SCT100 BKN200
     FM020600 VRB04KT P6SM SCT100 BKN200
     FM022000 30010KT P6SM SCT100 BKN200=



000
FTUS46 KHNX 012320
TAFMCE
TAF
KMCE 012320Z 0200/0224 32008KT P6SM VCSH SCT100 BKN200
     FM020600 VRB04KT P6SM SCT100 BKN200=



000
FTUS46 KHNX 012320
TAFFAT
TAF
KFAT 012320Z 0200/0224 28013KT P6SM VCSH SCT100 BKN200
     FM020600 VRB04KT P6SM SCT100 BKN200=



000
FTUS46 KHNX 012320
TAFMCE
TAF
KMCE 012320Z 0200/0224 32008KT P6SM VCSH SCT100 BKN200
     FM020600 VRB04KT P6SM SCT100 BKN200=



000
FTUS46 KHNX 011721
TAFFAT
TAF
KFAT 011721Z 0118/0218 VRB04KT P6SM SCT100 BKN200=



000
FTUS46 KHNX 011721
TAFMCE
TAF
KMCE 011721Z 0118/0218 13012KT P6SM BKN200
     FM012100 32008KT P6SM BKN200
     FM020600 VRB04KT P6SM BKN200=



000
FTUS46 KHNX 011721
TAFBFL
TAF
KBFL 011721Z 0118/0218 19005KT P6SM -SHRA BKN090 OVC200
     FM012000 30009KT P6SM SCT100 BKN200
     FM020300 34006KT P6SM SCT100 BKN200
     FM020900 VRB04KT P6SM SCT100 BKN200=



000
FTUS46 KHNX 011329 AAA
TAFBFL
TAF AMD
KBFL 011329Z 0113/0212 VRB04KT P6SM VCTS SCT080CB BKN200
      TEMPO 0113/0116 10015G25KT
     FM011600 15007KT P6SM FEW080 BKN150
     FM011800 30010KT P6SM SCT100 BKN200
     FM020400 35005KT P6SM BKN200=



000
FTUS46 KHNX 011135
TAFBFL
TAF
KBFL 011135Z 0112/0212 VRB04KT P6SM VCTS SCT080CB BKN200
     FM011600 15007KT P6SM FEW080 BKN150
     FM011800 30010KT P6SM SCT100 BKN200
     FM020400 35005KT P6SM BKN200=



000
FTUS46 KHNX 011135
TAFMCE
TAF
KMCE 011135Z 0112/0212 33007KT P6SM BKN250=



000
FTUS46 KHNX 011135
TAFFAT
TAF
KFAT 011135Z 0112/0212 VRB05KT P6SM SCT150 BKN250
     FM020100 30008KT P6SM BKN150=



000
FTUS46 KHNX 011135
TAFFAT
TAF
KFAT 011135Z 0112/0212 VRB05KT P6SM SCT150 BKN250
     FM020100 30008KT P6SM BKN150=



000
FTUS46 KHNX 011135
TAFBFL
TAF
KBFL 011135Z 0112/0212 VRB04KT P6SM VCTS SCT080CB BKN200
     FM011600 15007KT P6SM FEW080 BKN150
     FM011800 30010KT P6SM SCT100 BKN200
     FM020400 35005KT P6SM BKN200=



000
FTUS46 KHNX 011135
TAFMCE
TAF
KMCE 011135Z 0112/0212 33007KT P6SM BKN250=



000
FTUS46 KHNX 010520
TAFMCE
TAF
KMCE 010520Z 0106/0206 VRB05KT P6SM SKC=



000
FTUS46 KHNX 010520
TAFMCE
TAF
KMCE 010520Z 0106/0206 VRB05KT P6SM SKC=



000
FTUS46 KHNX 010520
TAFBFL
TAF
KBFL 010520Z 0106/0206 VRB04KT P6SM SKC
     FM012000 30010KT P6SM SCT150 BKN200=



000
FTUS46 KHNX 010520
TAFBFL
TAF
KBFL 010520Z 0106/0206 VRB04KT P6SM SKC
     FM012000 30010KT P6SM SCT150 BKN200=



000
FTUS46 KHNX 010520
TAFFAT
TAF
KFAT 010520Z 0106/0206 29007KT P6SM SCT150=



000
FTUS46 KHNX 010520
TAFFAT
TAF
KFAT 010520Z 0106/0206 29007KT P6SM SCT150=



000
FTUS46 KHNX 302320
TAFMCE
TAF
KMCE 302320Z 0100/0124 32008KT P6SM FEW150 SCT200=



000
FTUS46 KHNX 302320
TAFFAT
TAF
KFAT 302320Z 0100/0124 31007KT P6SM FEW150 SCT200=



000
FTUS46 KHNX 302320
TAFBFL
TAF
KBFL 302320Z 0100/0124 30009KT P6SM FEW150 SCT200
     FM010300 34006KT P6SM FEW150 SCT200
     FM010800 VRB04KT P6SM FEW150 SCT200
     FM012000 30010KT P6SM SCT150 BKN200=



000
FTUS46 KHNX 301720
TAFMCE
TAF
KMCE 301720Z 3018/0118 32008KT P6SM SCT150 BKN200=



000
FTUS46 KHNX 301720
TAFBFL
TAF
KBFL 301720Z 3018/0118 VRB04KT P6SM SCT150 BKN200
     FM302000 30009KT P6SM SCT150 BKN200
     FM010300 34006KT P6SM SCT150 BKN200
     FM010800 VRB04KT P6SM SCT150 BKN200=



000
FTUS46 KHNX 301720
TAFFAT
TAF
KFAT 301720Z 3018/0118 31007KT P6SM SCT150 BKN200=



000
FTUS46 KHNX 301120
TAFFAT
TAF
KFAT 301120Z 3012/0112 30006KT P6SM SCT150=



000
FTUS46 KHNX 301120
TAFMCE
TAF
KMCE 301120Z 3012/0112 32008KT P6SM SCT150=



000
FTUS46 KHNX 301120
TAFBFL
TAF
KBFL 301120Z 3012/0112 VRB03KT P6SM SCT150 BKN200
     FM302000 30008KT P6SM SCT150 BKN200
     FM010400 VRB03KT P6SM SCT150 BKN200=



000
FTUS46 KHNX 301120
TAFBFL
TAF
KBFL 301120Z 3012/0112 VRB03KT P6SM SCT150 BKN200
     FM302000 30008KT P6SM SCT150 BKN200
     FM010400 VRB03KT P6SM SCT150 BKN200=



000
FTUS46 KHNX 301120
TAFMCE
TAF
KMCE 301120Z 3012/0112 32008KT P6SM SCT150=



000
FTUS46 KHNX 301120
TAFFAT
TAF
KFAT 301120Z 3012/0112 30006KT P6SM SCT150=



000
FTUS46 KHNX 300520
TAFBFL
TAF
KBFL 300520Z 3006/0106 VRB04KT P6SM SCT150 BKN200
     FM302000 30008KT P6SM SCT150 BKN200=



000
FTUS46 KHNX 300520
TAFBFL
TAF
KBFL 300520Z 3006/0106 VRB04KT P6SM SCT150 BKN200
     FM302000 30008KT P6SM SCT150 BKN200=



000
FTUS46 KHNX 300520
TAFMCE
TAF
KMCE 300520Z 3006/0106 32008KT P6SM SCT150=



000
FTUS46 KHNX 300520
TAFFAT
TAF
KFAT 300520Z 3006/0106 30006KT P6SM SCT150=



000
FTUS46 KHNX 292320
TAFFAT
TAF
KFAT 292320Z 3000/3024 31010KT P6SM SCT150 BKN200
     FM301200 VRB04KT P6SM SCT150 BKN200
     FM302300 31008KT P6SM SCT150 BKN200=



000
FTUS46 KHNX 292320
TAFMCE
TAF
KMCE 292320Z 3000/3024 32010KT P6SM SCT150 BKN200
     FM300900 32005KT P6SM SCT150 BKN200
     FM302000 32008KT P6SM SCT150 BKN200=



000
FTUS46 KHNX 292320
TAFBFL
TAF
KBFL 292320Z 3000/3024 30010KT P6SM SCT150 BKN200
     FM300300 VRB04KT P6SM SCT150 BKN200
     FM302000 30008KT P6SM SCT150 BKN200
      AMD NOT SKED=



    US Dept of Commerce
    National Oceanic and Atmospheric Administration
    National Weather Service
    1325 East West Highway
    Silver Spring, MD 20910
    Page Author: NWS Internet Services Team
Disclaimer
Information Quality
Credits
Glossary
Privacy Policy
Freedom of Information Act (FOIA)
About Us
Career Opportunities